sensor_id;sensor_type;location;lat;lon;timestamp;temperature;humidity
21085;DHT22;34247;50.064;19.970;2023-03-03T00:00:13;20.00;24.90
21085;DHT22;34247;50.064;19.970;2023-03-03T00:01:25;20.00;24.80
21085;DHT22;34247;50.064;19.970;2023-03-03T00:02:29;20.00;24.80
21085;DHT22;34247;50.064;19.970;2023-03-03T00:03:33;20.00;24.80
21085;DHT22;34247;50.064;19.970;2023-03-03T00:04:37;20.00;24.90
21085;DHT22;34247;50.064;19.970;2023-03-03T00:05:42;20.00;24.90
21085;DHT22;34247;50.064;19.970;2023-03-03T00:06:46;20.00;24.90
21085;DHT22;34247;50.064;19.970;2023-03-03T00:07:51;19.90;24.90
21085;DHT22;34247;50.064;19.970;2023-03-03T00:08:58;20.00;24.90
21085;DHT22;34247;50.064;19.970;2023-03-03T00:10:02;19.90;24.90
21085;DHT22;34247;50.064;19.970;2023-03-03T00:11:07;19.90;24.90
21085;DHT22;34247;50.064;19.970;2023-03-03T00:12:22;19.90;24.90
21085;DHT22;34247;50.064;19.970;2023-03-03T00:13:30;19.90;25.00
21085;DHT22;34247;50.064;19.970;2023-03-03T00:14:36;19.90;25.00
21085;DHT22;34247;50.064;19.970;2023-03-03T00:15:39;19.90;25.00
21085;DHT22;34247;50.064;19.970;2023-03-03T00:16:48;19.90;25.10
21085;DHT22;34247;50.064;19.970;2023-03-03T00:17:53;19.80;25.10
21085;DHT22;34247;50.064;19.970;2023-03-03T00:18:57;19.80;25.10
21085;DHT22;34247;50.064;19.970;2023-03-03T00:20:29;19.80;25.10
21085;DHT22;34247;50.064;19.970;2023-03-03T00:21:44;19.80;25.10
21085;DHT22;34247;50.064;19.970;2023-03-03T00:22:51;19.80;25.10
21085;DHT22;34247;50.064;19.970;2023-03-03T00:25:29;19.80;25.10
21085;DHT22;34247;50.064;19.970;2023-03-03T00:26:37;19.80;25.10
21085;DHT22;34247;50.064;19.970;2023-03-03T00:27:43;19.80;25.10
21085;DHT22;34247;50.064;19.970;2023-03-03T00:28:49;19.80;25.10
21085;DHT22;34247;50.064;19.970;2023-03-03T00:29:56;19.80;25.10
21085;DHT22;34247;50.064;19.970;2023-03-03T00:31:14;19.80;25.10
21085;DHT22;34247;50.064;19.970;2023-03-03T00:32:25;19.80;25.10
21085;DHT22;34247;50.064;19.970;2023-03-03T00:33:40;19.80;25.10
21085;DHT22;34247;50.064;19.970;2023-03-03T00:34:49;19.80;25.10
21085;DHT22;34247;50.064;19.970;2023-03-03T00:35:55;19.80;25.10
21085;DHT22;34247;50.064;19.970;2023-03-03T00:37:31;19.80;25.10
21085;DHT22;34247;50.064;19.970;2023-03-03T00:38:37;19.70;25.00
21085;DHT22;34247;50.064;19.970;2023-03-03T00:39:41;19.70;25.00
21085;DHT22;34247;50.064;19.970;2023-03-03T00:40:46;19.80;25.10
21085;DHT22;34247;50.064;19.970;2023-03-03T00:41:51;19.70;25.00
21085;DHT22;34247;50.064;19.970;2023-03-03T00:42:57;19.70;25.10
21085;DHT22;34247;50.064;19.970;2023-03-03T00:45:51;19.70;25.10
21085;DHT22;34247;50.064;19.970;2023-03-03T00:47:02;19.70;25.00
21085;DHT22;34247;50.064;19.970;2023-03-03T00:49:40;19.70;25.00
21085;DHT22;34247;50.064;19.970;2023-03-03T00:50:45;19.70;25.10
21085;DHT22;34247;50.064;19.970;2023-03-03T00:51:49;19.70;25.10
21085;DHT22;34247;50.064;19.970;2023-03-03T00:53:10;19.60;25.00
21085;DHT22;34247;50.064;19.970;2023-03-03T00:54:16;19.60;25.10
21085;DHT22;34247;50.064;19.970;2023-03-03T00:55:20;19.60;25.10
21085;DHT22;34247;50.064;19.970;2023-03-03T00:56:24;19.60;25.10
21085;DHT22;34247;50.064;19.970;2023-03-03T00:57:29;19.60;25.10
21085;DHT22;34247;50.064;19.970;2023-03-03T00:58:33;19.60;25.10
21085;DHT22;34247;50.064;19.970;2023-03-03T00:59:38;19.60;25.20
21085;DHT22;34247;50.064;19.970;2023-03-03T01:00:42;19.60;25.20
21085;DHT22;34247;50.064;19.970;2023-03-03T01:01:46;19.60;25.20
21085;DHT22;34247;50.064;19.970;2023-03-03T01:02:51;19.60;25.20
21085;DHT22;34247;50.064;19.970;2023-03-03T01:03:55;19.60;25.20
21085;DHT22;34247;50.064;19.970;2023-03-03T01:04:59;19.50;25.10
21085;DHT22;34247;50.064;19.970;2023-03-03T01:06:03;19.50;25.10
21085;DHT22;34247;50.064;19.970;2023-03-03T01:07:07;19.50;25.10
21085;DHT22;34247;50.064;19.970;2023-03-03T01:08:11;19.50;25.10
21085;DHT22;34247;50.064;19.970;2023-03-03T01:09:16;19.50;25.00
21085;DHT22;34247;50.064;19.970;2023-03-03T01:10:20;19.50;25.00
21085;DHT22;34247;50.064;19.970;2023-03-03T01:11:25;19.50;25.00
21085;DHT22;34247;50.064;19.970;2023-03-03T01:12:31;19.50;25.00
21085;DHT22;34247;50.064;19.970;2023-03-03T01:13:36;19.50;25.10
21085;DHT22;34247;50.064;19.970;2023-03-03T01:14:42;19.50;25.00
21085;DHT22;34247;50.064;19.970;2023-03-03T01:15:47;19.50;25.10
21085;DHT22;34247;50.064;19.970;2023-03-03T01:16:52;19.50;25.10
21085;DHT22;34247;50.064;19.970;2023-03-03T01:17:57;19.50;25.10
21085;DHT22;34247;50.064;19.970;2023-03-03T01:19:01;19.50;25.20
21085;DHT22;34247;50.064;19.970;2023-03-03T01:20:07;19.50;25.20
21085;DHT22;34247;50.064;19.970;2023-03-03T01:21:12;19.50;25.20
21085;DHT22;34247;50.064;19.970;2023-03-03T01:22:19;19.50;25.30
21085;DHT22;34247;50.064;19.970;2023-03-03T01:23:22;19.50;25.30
21085;DHT22;34247;50.064;19.970;2023-03-03T01:24:26;19.40;25.20
21085;DHT22;34247;50.064;19.970;2023-03-03T01:25:30;19.40;25.20
21085;DHT22;34247;50.064;19.970;2023-03-03T01:26:33;19.40;25.30
21085;DHT22;34247;50.064;19.970;2023-03-03T01:27:39;19.40;25.30
21085;DHT22;34247;50.064;19.970;2023-03-03T01:28:43;19.40;25.30
21085;DHT22;34247;50.064;19.970;2023-03-03T01:29:50;19.40;25.30
21085;DHT22;34247;50.064;19.970;2023-03-03T01:30:54;19.40;25.30
21085;DHT22;34247;50.064;19.970;2023-03-03T01:32:03;19.40;25.30
21085;DHT22;34247;50.064;19.970;2023-03-03T01:33:09;19.40;25.30
21085;DHT22;34247;50.064;19.970;2023-03-03T01:34:13;19.40;25.30
21085;DHT22;34247;50.064;19.970;2023-03-03T01:35:17;19.40;25.30
21085;DHT22;34247;50.064;19.970;2023-03-03T01:36:25;19.40;25.30
21085;DHT22;34247;50.064;19.970;2023-03-03T01:37:34;19.40;25.30
21085;DHT22;34247;50.064;19.970;2023-03-03T01:38:38;19.40;25.30
21085;DHT22;34247;50.064;19.970;2023-03-03T01:39:46;19.30;25.30
21085;DHT22;34247;50.064;19.970;2023-03-03T01:40:55;19.30;25.20
21085;DHT22;34247;50.064;19.970;2023-03-03T01:42:02;19.40;25.30
21085;DHT22;34247;50.064;19.970;2023-03-03T01:43:13;19.40;25.30
21085;DHT22;34247;50.064;19.970;2023-03-03T01:44:18;19.30;25.30
21085;DHT22;34247;50.064;19.970;2023-03-03T01:48:22;19.30;25.30
21085;DHT22;34247;50.064;19.970;2023-03-03T01:51:24;19.30;25.30
21085;DHT22;34247;50.064;19.970;2023-03-03T01:52:35;19.30;25.30
21085;DHT22;34247;50.064;19.970;2023-03-03T01:53:53;19.20;25.20
21085;DHT22;34247;50.064;19.970;2023-03-03T01:55:13;19.30;25.40
21085;DHT22;34247;50.064;19.970;2023-03-03T01:56:21;19.30;25.20
21085;DHT22;34247;50.064;19.970;2023-03-03T01:57:32;19.30;25.20
21085;DHT22;34247;50.064;19.970;2023-03-03T01:59:10;19.20;25.10
21085;DHT22;34247;50.064;19.970;2023-03-03T02:00:17;19.30;25.10
21085;DHT22;34247;50.064;19.970;2023-03-03T02:01:25;19.30;25.20
21085;DHT22;34247;50.064;19.970;2023-03-03T02:02:31;19.20;25.10
21085;DHT22;34247;50.064;19.970;2023-03-03T02:03:35;19.20;25.10
21085;DHT22;34247;50.064;19.970;2023-03-03T02:04:39;19.20;25.10
21085;DHT22;34247;50.064;19.970;2023-03-03T02:05:43;19.20;25.10
21085;DHT22;34247;50.064;19.970;2023-03-03T02:06:51;19.20;25.10
21085;DHT22;34247;50.064;19.970;2023-03-03T02:08:00;19.20;25.10
21085;DHT22;34247;50.064;19.970;2023-03-03T02:09:31;19.20;25.10
21085;DHT22;34247;50.064;19.970;2023-03-03T02:10:45;19.20;25.10
21085;DHT22;34247;50.064;19.970;2023-03-03T02:11:51;19.20;25.10
21085;DHT22;34247;50.064;19.970;2023-03-03T02:12:59;19.20;25.20
21085;DHT22;34247;50.064;19.970;2023-03-03T02:14:03;19.20;25.20
21085;DHT22;34247;50.064;19.970;2023-03-03T02:15:27;19.10;25.10
21085;DHT22;34247;50.064;19.970;2023-03-03T02:16:38;19.10;25.20
21085;DHT22;34247;50.064;19.970;2023-03-03T02:17:43;19.20;25.50
21085;DHT22;34247;50.064;19.970;2023-03-03T02:18:48;19.10;25.10
21085;DHT22;34247;50.064;19.970;2023-03-03T02:20:06;19.10;25.10
21085;DHT22;34247;50.064;19.970;2023-03-03T02:21:21;19.10;25.10
21085;DHT22;34247;50.064;19.970;2023-03-03T02:24:20;19.10;25.10
21085;DHT22;34247;50.064;19.970;2023-03-03T02:25:46;19.10;25.10
21085;DHT22;34247;50.064;19.970;2023-03-03T02:26:52;19.10;25.10
21085;DHT22;34247;50.064;19.970;2023-03-03T02:27:56;19.10;25.10
21085;DHT22;34247;50.064;19.970;2023-03-03T02:29:00;19.10;25.10
21085;DHT22;34247;50.064;19.970;2023-03-03T02:30:24;19.10;25.10
21085;DHT22;34247;50.064;19.970;2023-03-03T02:31:29;19.10;25.00
21085;DHT22;34247;50.064;19.970;2023-03-03T02:32:34;19.10;25.00
21085;DHT22;34247;50.064;19.970;2023-03-03T02:33:39;19.10;25.00
21085;DHT22;34247;50.064;19.970;2023-03-03T02:34:49;19.10;25.00
21085;DHT22;34247;50.064;19.970;2023-03-03T02:35:55;19.10;25.00
21085;DHT22;34247;50.064;19.970;2023-03-03T02:37:05;19.00;25.10
21085;DHT22;34247;50.064;19.970;2023-03-03T02:39:30;19.00;25.10
21085;DHT22;34247;50.064;19.970;2023-03-03T02:40:38;19.00;25.00
21085;DHT22;34247;50.064;19.970;2023-03-03T02:43:19;19.00;25.20
21085;DHT22;34247;50.064;19.970;2023-03-03T02:44:30;19.00;25.20
21085;DHT22;34247;50.064;19.970;2023-03-03T02:45:41;19.00;25.20
21085;DHT22;34247;50.064;19.970;2023-03-03T02:46:47;19.00;25.30
21085;DHT22;34247;50.064;19.970;2023-03-03T02:47:52;19.00;25.30
21085;DHT22;34247;50.064;19.970;2023-03-03T02:48:59;19.00;25.30
21085;DHT22;34247;50.064;19.970;2023-03-03T02:50:03;19.00;25.40
21085;DHT22;34247;50.064;19.970;2023-03-03T02:51:07;19.00;25.30
21085;DHT22;34247;50.064;19.970;2023-03-03T02:52:11;18.90;25.30
21085;DHT22;34247;50.064;19.970;2023-03-03T02:53:17;18.90;25.30
21085;DHT22;34247;50.064;19.970;2023-03-03T02:54:23;18.90;25.30
21085;DHT22;34247;50.064;19.970;2023-03-03T02:55:28;18.90;25.40
21085;DHT22;34247;50.064;19.970;2023-03-03T02:56:32;18.90;25.30
21085;DHT22;34247;50.064;19.970;2023-03-03T02:57:36;18.90;25.30
21085;DHT22;34247;50.064;19.970;2023-03-03T02:58:40;19.00;25.30
21085;DHT22;34247;50.064;19.970;2023-03-03T02:59:44;19.00;25.20
21085;DHT22;34247;50.064;19.970;2023-03-03T03:00:48;18.90;25.20
21085;DHT22;34247;50.064;19.970;2023-03-03T03:01:52;18.90;25.20
21085;DHT22;34247;50.064;19.970;2023-03-03T03:02:56;18.90;25.10
21085;DHT22;34247;50.064;19.970;2023-03-03T03:04:07;18.90;25.10
21085;DHT22;34247;50.064;19.970;2023-03-03T03:05:15;18.90;25.10
21085;DHT22;34247;50.064;19.970;2023-03-03T03:06:19;18.90;25.10
21085;DHT22;34247;50.064;19.970;2023-03-03T03:07:23;18.90;25.10
21085;DHT22;34247;50.064;19.970;2023-03-03T03:08:26;18.90;25.10
21085;DHT22;34247;50.064;19.970;2023-03-03T03:09:30;18.90;25.10
21085;DHT22;34247;50.064;19.970;2023-03-03T03:10:34;18.90;25.10
21085;DHT22;34247;50.064;19.970;2023-03-03T03:11:39;18.90;25.10
21085;DHT22;34247;50.064;19.970;2023-03-03T03:12:43;18.90;25.20
21085;DHT22;34247;50.064;19.970;2023-03-03T03:13:47;18.80;25.10
21085;DHT22;34247;50.064;19.970;2023-03-03T03:14:50;18.80;25.20
21085;DHT22;34247;50.064;19.970;2023-03-03T03:15:54;18.80;25.20
21085;DHT22;34247;50.064;19.970;2023-03-03T03:16:58;18.80;25.20
21085;DHT22;34247;50.064;19.970;2023-03-03T03:18:02;18.80;25.20
21085;DHT22;34247;50.064;19.970;2023-03-03T03:19:07;18.80;25.20
21085;DHT22;34247;50.064;19.970;2023-03-03T03:20:11;18.80;25.10
21085;DHT22;34247;50.064;19.970;2023-03-03T03:21:16;18.80;25.10
21085;DHT22;34247;50.064;19.970;2023-03-03T03:22:20;18.80;25.10
21085;DHT22;34247;50.064;19.970;2023-03-03T03:23:23;18.80;25.10
21085;DHT22;34247;50.064;19.970;2023-03-03T03:24:28;18.80;25.20
21085;DHT22;34247;50.064;19.970;2023-03-03T03:25:31;18.80;25.20
21085;DHT22;34247;50.064;19.970;2023-03-03T03:26:35;18.80;25.20
21085;DHT22;34247;50.064;19.970;2023-03-03T03:27:39;18.80;25.20
21085;DHT22;34247;50.064;19.970;2023-03-03T03:28:42;18.80;25.10
21085;DHT22;34247;50.064;19.970;2023-03-03T03:29:46;18.80;25.10
21085;DHT22;34247;50.064;19.970;2023-03-03T03:30:50;18.80;25.20
21085;DHT22;34247;50.064;19.970;2023-03-03T03:31:54;18.70;25.10
21085;DHT22;34247;50.064;19.970;2023-03-03T03:32:58;18.80;25.20
21085;DHT22;34247;50.064;19.970;2023-03-03T03:34:02;18.80;25.20
21085;DHT22;34247;50.064;19.970;2023-03-03T03:35:06;18.80;25.20
21085;DHT22;34247;50.064;19.970;2023-03-03T03:36:10;18.70;25.10
21085;DHT22;34247;50.064;19.970;2023-03-03T03:37:14;18.80;25.20
21085;DHT22;34247;50.064;19.970;2023-03-03T03:38:18;18.80;25.20
21085;DHT22;34247;50.064;19.970;2023-03-03T03:39:22;18.80;25.20
21085;DHT22;34247;50.064;19.970;2023-03-03T03:40:26;18.80;25.20
21085;DHT22;34247;50.064;19.970;2023-03-03T03:41:30;18.80;25.20
21085;DHT22;34247;50.064;19.970;2023-03-03T03:42:34;18.80;25.20
21085;DHT22;34247;50.064;19.970;2023-03-03T03:43:38;18.80;25.20
21085;DHT22;34247;50.064;19.970;2023-03-03T03:44:42;18.70;25.10
21085;DHT22;34247;50.064;19.970;2023-03-03T03:45:46;18.80;25.20
21085;DHT22;34247;50.064;19.970;2023-03-03T03:46:50;18.80;25.30
21085;DHT22;34247;50.064;19.970;2023-03-03T03:47:54;18.80;25.20
21085;DHT22;34247;50.064;19.970;2023-03-03T03:48:58;18.80;25.20
21085;DHT22;34247;50.064;19.970;2023-03-03T03:50:02;18.70;25.10
21085;DHT22;34247;50.064;19.970;2023-03-03T03:51:06;18.70;25.10
21085;DHT22;34247;50.064;19.970;2023-03-03T03:52:10;18.80;25.20
21085;DHT22;34247;50.064;19.970;2023-03-03T03:53:15;18.80;25.10
21085;DHT22;34247;50.064;19.970;2023-03-03T03:54:20;18.80;25.10
21085;DHT22;34247;50.064;19.970;2023-03-03T03:55:27;18.70;25.10
21085;DHT22;34247;50.064;19.970;2023-03-03T03:56:31;18.70;25.10
21085;DHT22;34247;50.064;19.970;2023-03-03T03:57:34;18.70;25.10
21085;DHT22;34247;50.064;19.970;2023-03-03T03:58:40;18.70;25.00
21085;DHT22;34247;50.064;19.970;2023-03-03T03:59:44;18.70;25.10
21085;DHT22;34247;50.064;19.970;2023-03-03T04:00:48;18.70;25.10
21085;DHT22;34247;50.064;19.970;2023-03-03T04:01:52;18.70;25.10
21085;DHT22;34247;50.064;19.970;2023-03-03T04:02:57;18.70;25.10
21085;DHT22;34247;50.064;19.970;2023-03-03T04:04:02;18.70;25.10
21085;DHT22;34247;50.064;19.970;2023-03-03T04:05:07;18.70;25.10
21085;DHT22;34247;50.064;19.970;2023-03-03T04:06:11;18.70;25.10
21085;DHT22;34247;50.064;19.970;2023-03-03T04:07:18;18.70;25.10
21085;DHT22;34247;50.064;19.970;2023-03-03T04:08:22;18.70;25.10
21085;DHT22;34247;50.064;19.970;2023-03-03T04:09:26;18.70;25.10
21085;DHT22;34247;50.064;19.970;2023-03-03T04:10:30;18.70;25.10
21085;DHT22;34247;50.064;19.970;2023-03-03T04:11:34;18.70;25.10
21085;DHT22;34247;50.064;19.970;2023-03-03T04:12:38;18.70;25.10
21085;DHT22;34247;50.064;19.970;2023-03-03T04:13:43;18.70;25.10
21085;DHT22;34247;50.064;19.970;2023-03-03T04:14:46;18.70;25.10
21085;DHT22;34247;50.064;19.970;2023-03-03T04:15:50;18.70;25.10
21085;DHT22;34247;50.064;19.970;2023-03-03T04:16:55;18.70;25.00
21085;DHT22;34247;50.064;19.970;2023-03-03T04:17:58;18.70;25.00
21085;DHT22;34247;50.064;19.970;2023-03-03T04:19:03;18.60;25.00
21085;DHT22;34247;50.064;19.970;2023-03-03T04:20:09;18.70;25.00
21085;DHT22;34247;50.064;19.970;2023-03-03T04:21:15;18.60;25.00
21085;DHT22;34247;50.064;19.970;2023-03-03T04:22:19;18.70;25.00
21085;DHT22;34247;50.064;19.970;2023-03-03T04:23:23;18.60;25.00
21085;DHT22;34247;50.064;19.970;2023-03-03T04:24:29;18.60;25.00
21085;DHT22;34247;50.064;19.970;2023-03-03T04:25:33;18.60;25.00
21085;DHT22;34247;50.064;19.970;2023-03-03T04:26:36;18.60;25.00
21085;DHT22;34247;50.064;19.970;2023-03-03T04:27:41;18.60;24.90
21085;DHT22;34247;50.064;19.970;2023-03-03T04:28:46;18.60;24.90
21085;DHT22;34247;50.064;19.970;2023-03-03T04:29:49;18.60;24.90
21085;DHT22;34247;50.064;19.970;2023-03-03T04:30:53;18.60;24.90
21085;DHT22;34247;50.064;19.970;2023-03-03T04:31:58;18.60;24.90
21085;DHT22;34247;50.064;19.970;2023-03-03T04:33:03;18.60;24.90
21085;DHT22;34247;50.064;19.970;2023-03-03T04:34:10;18.60;24.90
21085;DHT22;34247;50.064;19.970;2023-03-03T04:35:14;18.60;24.90
21085;DHT22;34247;50.064;19.970;2023-03-03T04:36:18;18.60;24.90
21085;DHT22;34247;50.064;19.970;2023-03-03T04:37:23;18.60;24.90
21085;DHT22;34247;50.064;19.970;2023-03-03T04:38:27;18.60;24.90
21085;DHT22;34247;50.064;19.970;2023-03-03T04:39:30;18.60;25.00
21085;DHT22;34247;50.064;19.970;2023-03-03T04:40:34;18.60;25.00
21085;DHT22;34247;50.064;19.970;2023-03-03T04:41:38;18.60;25.00
21085;DHT22;34247;50.064;19.970;2023-03-03T04:42:42;18.60;25.00
21085;DHT22;34247;50.064;19.970;2023-03-03T04:43:47;18.60;25.10
21085;DHT22;34247;50.064;19.970;2023-03-03T04:44:50;18.60;25.00
21085;DHT22;34247;50.064;19.970;2023-03-03T04:45:54;18.60;25.00
21085;DHT22;34247;50.064;19.970;2023-03-03T04:46:58;18.60;25.10
21085;DHT22;34247;50.064;19.970;2023-03-03T04:48:02;18.50;25.00
21085;DHT22;34247;50.064;19.970;2023-03-03T04:49:07;18.50;25.00
21085;DHT22;34247;50.064;19.970;2023-03-03T04:50:14;18.50;25.10
21085;DHT22;34247;50.064;19.970;2023-03-03T04:51:19;18.50;25.10
21085;DHT22;34247;50.064;19.970;2023-03-03T04:52:23;18.50;25.10
21085;DHT22;34247;50.064;19.970;2023-03-03T04:53:27;18.50;25.00
21085;DHT22;34247;50.064;19.970;2023-03-03T04:54:31;18.40;25.00
21085;DHT22;34247;50.064;19.970;2023-03-03T04:55:36;18.50;25.10
21085;DHT22;34247;50.064;19.970;2023-03-03T04:56:40;18.40;25.10
21085;DHT22;34247;50.064;19.970;2023-03-03T04:57:43;18.50;25.00
21085;DHT22;34247;50.064;19.970;2023-03-03T04:58:48;18.50;25.00
21085;DHT22;34247;50.064;19.970;2023-03-03T04:59:52;18.40;24.90
21085;DHT22;34247;50.064;19.970;2023-03-03T05:00:56;18.50;25.00
21085;DHT22;34247;50.064;19.970;2023-03-03T05:02:01;18.50;25.00
21085;DHT22;34247;50.064;19.970;2023-03-03T05:03:07;18.40;25.00
21085;DHT22;34247;50.064;19.970;2023-03-03T05:04:13;18.50;25.00
21085;DHT22;34247;50.064;19.970;2023-03-03T05:05:17;18.40;25.00
21085;DHT22;34247;50.064;19.970;2023-03-03T05:06:21;18.40;25.00
21085;DHT22;34247;50.064;19.970;2023-03-03T05:07:24;18.40;25.10
21085;DHT22;34247;50.064;19.970;2023-03-03T05:08:28;18.40;25.10
21085;DHT22;34247;50.064;19.970;2023-03-03T05:09:32;18.40;25.20
21085;DHT22;34247;50.064;19.970;2023-03-03T05:10:36;18.40;25.20
21085;DHT22;34247;50.064;19.970;2023-03-03T05:11:40;18.40;25.20
21085;DHT22;34247;50.064;19.970;2023-03-03T05:12:44;18.40;25.20
21085;DHT22;34247;50.064;19.970;2023-03-03T05:13:48;18.30;25.20
21085;DHT22;34247;50.064;19.970;2023-03-03T05:14:51;18.40;25.20
21085;DHT22;34247;50.064;19.970;2023-03-03T05:15:56;18.40;25.20
21085;DHT22;34247;50.064;19.970;2023-03-03T05:17:00;18.40;25.10
21085;DHT22;34247;50.064;19.970;2023-03-03T05:18:04;18.30;25.10
21085;DHT22;34247;50.064;19.970;2023-03-03T05:19:08;18.30;25.20
21085;DHT22;34247;50.064;19.970;2023-03-03T05:20:12;18.30;25.20
21085;DHT22;34247;50.064;19.970;2023-03-03T05:21:16;18.30;25.20
21085;DHT22;34247;50.064;19.970;2023-03-03T05:22:20;18.30;25.20
21085;DHT22;34247;50.064;19.970;2023-03-03T05:23:24;18.30;25.20
21085;DHT22;34247;50.064;19.970;2023-03-03T05:24:28;18.30;25.30
21085;DHT22;34247;50.064;19.970;2023-03-03T05:25:32;18.30;25.30
21085;DHT22;34247;50.064;19.970;2023-03-03T05:26:35;18.30;25.40
21085;DHT22;34247;50.064;19.970;2023-03-03T05:27:40;18.30;25.40
21085;DHT22;34247;50.064;19.970;2023-03-03T05:28:44;18.30;25.40
21085;DHT22;34247;50.064;19.970;2023-03-03T05:29:48;18.30;25.40
21085;DHT22;34247;50.064;19.970;2023-03-03T05:30:51;18.30;25.50
21085;DHT22;34247;50.064;19.970;2023-03-03T05:31:56;18.30;25.50
21085;DHT22;34247;50.064;19.970;2023-03-03T05:33:00;18.30;25.50
21085;DHT22;34247;50.064;19.970;2023-03-03T05:34:04;18.30;25.50
21085;DHT22;34247;50.064;19.970;2023-03-03T05:35:09;18.20;25.50
21085;DHT22;34247;50.064;19.970;2023-03-03T05:36:12;18.20;25.50
21085;DHT22;34247;50.064;19.970;2023-03-03T05:37:16;18.30;25.50
21085;DHT22;34247;50.064;19.970;2023-03-03T05:38:20;18.30;25.50
21085;DHT22;34247;50.064;19.970;2023-03-03T05:39:27;18.30;25.60
21085;DHT22;34247;50.064;19.970;2023-03-03T05:40:31;18.20;25.50
21085;DHT22;34247;50.064;19.970;2023-03-03T05:41:35;18.20;25.50
21085;DHT22;34247;50.064;19.970;2023-03-03T05:42:39;18.20;25.50
21085;DHT22;34247;50.064;19.970;2023-03-03T05:43:46;18.20;25.60
21085;DHT22;34247;50.064;19.970;2023-03-03T05:44:50;18.30;25.60
21085;DHT22;34247;50.064;19.970;2023-03-03T05:45:55;18.30;25.60
21085;DHT22;34247;50.064;19.970;2023-03-03T05:47:00;18.20;25.60
21085;DHT22;34247;50.064;19.970;2023-03-03T05:48:07;18.20;25.60
21085;DHT22;34247;50.064;19.970;2023-03-03T05:49:12;18.30;25.70
21085;DHT22;34247;50.064;19.970;2023-03-03T05:50:17;18.30;25.70
21085;DHT22;34247;50.064;19.970;2023-03-03T05:51:22;18.20;25.60
21085;DHT22;34247;50.064;19.970;2023-03-03T05:52:26;18.30;25.70
21085;DHT22;34247;50.064;19.970;2023-03-03T05:53:30;18.20;25.70
21085;DHT22;34247;50.064;19.970;2023-03-03T05:54:34;18.30;25.70
21085;DHT22;34247;50.064;19.970;2023-03-03T05:55:38;18.30;25.70
21085;DHT22;34247;50.064;19.970;2023-03-03T05:56:44;18.30;25.70
21085;DHT22;34247;50.064;19.970;2023-03-03T05:57:48;18.30;25.70
21085;DHT22;34247;50.064;19.970;2023-03-03T05:58:52;18.30;25.70
21085;DHT22;34247;50.064;19.970;2023-03-03T05:59:56;18.30;25.80
21085;DHT22;34247;50.064;19.970;2023-03-03T06:01:00;18.30;25.80
21085;DHT22;34247;50.064;19.970;2023-03-03T06:02:04;18.30;25.80
21085;DHT22;34247;50.064;19.970;2023-03-03T06:03:08;18.40;25.80
21085;DHT22;34247;50.064;19.970;2023-03-03T06:04:12;18.40;25.90
21085;DHT22;34247;50.064;19.970;2023-03-03T06:05:16;18.40;25.90
21085;DHT22;34247;50.064;19.970;2023-03-03T06:06:20;18.40;25.80
21085;DHT22;34247;50.064;19.970;2023-03-03T06:07:24;18.40;25.90
21085;DHT22;34247;50.064;19.970;2023-03-03T06:08:28;18.40;25.90
21085;DHT22;34247;50.064;19.970;2023-03-03T06:09:32;18.40;26.40
21085;DHT22;34247;50.064;19.970;2023-03-03T06:10:36;18.40;25.90
21085;DHT22;34247;50.064;19.970;2023-03-03T06:11:40;18.50;25.90
21085;DHT22;34247;50.064;19.970;2023-03-03T06:12:44;18.50;25.90
21085;DHT22;34247;50.064;19.970;2023-03-03T06:13:48;18.50;25.90
21085;DHT22;34247;50.064;19.970;2023-03-03T06:14:54;18.50;25.80
21085;DHT22;34247;50.064;19.970;2023-03-03T06:16:01;18.50;25.80
21085;DHT22;34247;50.064;19.970;2023-03-03T06:17:05;18.50;25.80
21085;DHT22;34247;50.064;19.970;2023-03-03T06:18:09;18.50;25.80
21085;DHT22;34247;50.064;19.970;2023-03-03T06:19:13;18.60;25.80
21085;DHT22;34247;50.064;19.970;2023-03-03T06:20:18;18.60;25.80
21085;DHT22;34247;50.064;19.970;2023-03-03T06:21:22;18.60;25.80
21085;DHT22;34247;50.064;19.970;2023-03-03T06:22:26;18.60;25.80
21085;DHT22;34247;50.064;19.970;2023-03-03T06:23:30;18.60;25.80
21085;DHT22;34247;50.064;19.970;2023-03-03T06:24:34;18.60;25.80
21085;DHT22;34247;50.064;19.970;2023-03-03T06:25:38;18.60;25.80
21085;DHT22;34247;50.064;19.970;2023-03-03T06:26:42;18.60;25.80
21085;DHT22;34247;50.064;19.970;2023-03-03T06:27:45;18.60;25.80
21085;DHT22;34247;50.064;19.970;2023-03-03T06:28:51;18.70;25.80
21085;DHT22;34247;50.064;19.970;2023-03-03T06:30:00;18.60;25.70
21085;DHT22;34247;50.064;19.970;2023-03-03T06:31:03;18.70;25.80
21085;DHT22;34247;50.064;19.970;2023-03-03T06:32:07;18.70;25.80
21085;DHT22;34247;50.064;19.970;2023-03-03T06:33:12;18.70;25.70
21085;DHT22;34247;50.064;19.970;2023-03-03T06:34:16;18.80;25.70
21085;DHT22;34247;50.064;19.970;2023-03-03T06:35:20;18.80;25.70
21085;DHT22;34247;50.064;19.970;2023-03-03T06:36:24;18.80;25.70
21085;DHT22;34247;50.064;19.970;2023-03-03T06:37:28;18.80;25.70
21085;DHT22;34247;50.064;19.970;2023-03-03T06:38:32;18.80;25.60
21085;DHT22;34247;50.064;19.970;2023-03-03T06:39:38;18.80;25.60
21085;DHT22;34247;50.064;19.970;2023-03-03T06:40:42;18.80;25.60
21085;DHT22;34247;50.064;19.970;2023-03-03T06:41:46;18.80;25.60
21085;DHT22;34247;50.064;19.970;2023-03-03T06:42:50;18.80;25.60
21085;DHT22;34247;50.064;19.970;2023-03-03T06:43:54;18.80;25.70
21085;DHT22;34247;50.064;19.970;2023-03-03T06:44:58;18.80;25.60
21085;DHT22;34247;50.064;19.970;2023-03-03T06:46:06;18.90;25.60
21085;DHT22;34247;50.064;19.970;2023-03-03T06:47:14;18.90;25.50
21085;DHT22;34247;50.064;19.970;2023-03-03T06:48:17;18.90;25.40
21085;DHT22;34247;50.064;19.970;2023-03-03T06:49:22;19.00;25.40
21085;DHT22;34247;50.064;19.970;2023-03-03T06:50:29;19.00;25.40
21085;DHT22;34247;50.064;19.970;2023-03-03T06:51:35;19.00;25.40
21085;DHT22;34247;50.064;19.970;2023-03-03T06:52:43;19.00;25.30
21085;DHT22;34247;50.064;19.970;2023-03-03T06:53:50;19.00;25.30
21085;DHT22;34247;50.064;19.970;2023-03-03T06:54:59;18.90;25.30
21085;DHT22;34247;50.064;19.970;2023-03-03T06:56:12;19.00;25.40
21085;DHT22;34247;50.064;19.970;2023-03-03T06:57:30;18.90;25.40
21085;DHT22;34247;50.064;19.970;2023-03-03T06:58:35;19.00;25.40
21085;DHT22;34247;50.064;19.970;2023-03-03T06:59:40;19.00;25.40
21085;DHT22;34247;50.064;19.970;2023-03-03T07:00:51;18.90;25.40
21085;DHT22;34247;50.064;19.970;2023-03-03T07:01:59;18.90;25.40
21085;DHT22;34247;50.064;19.970;2023-03-03T07:03:10;18.90;25.30